sensor_id;sensor_type;location;lat;lon;timestamp;P1;durP1;ratioP1;P2;durP2;ratioP2
45728;SDS011;31439;53.512;10.206;2023-08-08T00:02:04;6.05;;;2.30;;
45728;SDS011;31439;53.512;10.206;2023-08-08T00:04:31;7.00;;;2.28;;
45728;SDS011;31439;53.512;10.206;2023-08-08T00:06:56;7.70;;;2.13;;
45728;SDS011;31439;53.512;10.206;2023-08-08T00:09:22;6.00;;;2.30;;
45728;SDS011;31439;53.512;10.206;2023-08-08T00:11:47;5.05;;;2.00;;
45728;SDS011;31439;53.512;10.206;2023-08-08T00:14:13;6.10;;;2.10;;
45728;SDS011;31439;53.512;10.206;2023-08-08T00:16:39;4.72;;;2.20;;
45728;SDS011;31439;53.512;10.206;2023-08-08T00:19:05;6.05;;;2.10;;
45728;SDS011;31439;53.512;10.206;2023-08-08T00:21:31;4.65;;;2.00;;
45728;SDS011;31439;53.512;10.206;2023-08-08T00:23:56;6.22;;;3.08;;
45728;SDS011;31439;53.512;10.206;2023-08-08T00:26:22;7.88;;;2.72;;
45728;SDS011;31439;53.512;10.206;2023-08-08T00:28:47;7.68;;;2.35;;
45728;SDS011;31439;53.512;10.206;2023-08-08T00:31:13;5.93;;;2.88;;
45728;SDS011;31439;53.512;10.206;2023-08-08T00:33:42;7.60;;;2.45;;
45728;SDS011;31439;53.512;10.206;2023-08-08T00:36:07;6.38;;;2.30;;
45728;SDS011;31439;53.512;10.206;2023-08-08T00:38:33;8.38;;;2.50;;
45728;SDS011;31439;53.512;10.206;2023-08-08T00:40:58;4.60;;;2.17;;
45728;SDS011;31439;53.512;10.206;2023-08-08T00:43:24;7.18;;;2.63;;
45728;SDS011;31439;53.512;10.206;2023-08-08T00:45:49;6.95;;;2.67;;
45728;SDS011;31439;53.512;10.206;2023-08-08T00:48:15;7.65;;;2.47;;
45728;SDS011;31439;53.512;10.206;2023-08-08T00:50:42;8.55;;;2.60;;
45728;SDS011;31439;53.512;10.206;2023-08-08T00:53:09;7.70;;;3.10;;
45728;SDS011;31439;53.512;10.206;2023-08-08T00:55:35;9.27;;;2.55;;
45728;SDS011;31439;53.512;10.206;2023-08-08T00:58:01;9.27;;;2.40;;
45728;SDS011;31439;53.512;10.206;2023-08-08T01:00:26;6.30;;;2.38;;
45728;SDS011;31439;53.512;10.206;2023-08-08T01:02:52;6.60;;;2.38;;
45728;SDS011;31439;53.512;10.206;2023-08-08T01:05:17;7.60;;;3.00;;
45728;SDS011;31439;53.512;10.206;2023-08-08T01:07:45;7.45;;;2.17;;
45728;SDS011;31439;53.512;10.206;2023-08-08T01:10:28;7.68;;;2.25;;
45728;SDS011;31439;53.512;10.206;2023-08-08T01:12:59;7.32;;;2.65;;
45728;SDS011;31439;53.512;10.206;2023-08-08T01:15:28;4.63;;;1.90;;
45728;SDS011;31439;53.512;10.206;2023-08-08T01:17:57;5.13;;;2.22;;
45728;SDS011;31439;53.512;10.206;2023-08-08T01:20:23;6.70;;;2.28;;
45728;SDS011;31439;53.512;10.206;2023-08-08T01:23:03;8.23;;;2.53;;
45728;SDS011;31439;53.512;10.206;2023-08-08T01:25:34;5.47;;;2.53;;
45728;SDS011;31439;53.512;10.206;2023-08-08T01:28:01;5.65;;;2.58;;
45728;SDS011;31439;53.512;10.206;2023-08-08T01:30:28;7.07;;;2.40;;
45728;SDS011;31439;53.512;10.206;2023-08-08T01:32:53;6.32;;;2.20;;
45728;SDS011;31439;53.512;10.206;2023-08-08T01:35:19;4.72;;;2.08;;
45728;SDS011;31439;53.512;10.206;2023-08-08T01:37:49;6.95;;;2.35;;
45728;SDS011;31439;53.512;10.206;2023-08-08T01:40:19;6.63;;;2.30;;
45728;SDS011;31439;53.512;10.206;2023-08-08T01:42:46;6.07;;;2.08;;
45728;SDS011;31439;53.512;10.206;2023-08-08T01:45:13;4.35;;;2.08;;
45728;SDS011;31439;53.512;10.206;2023-08-08T01:47:40;5.25;;;2.20;;
45728;SDS011;31439;53.512;10.206;2023-08-08T01:50:06;6.07;;;2.47;;
45728;SDS011;31439;53.512;10.206;2023-08-08T01:52:34;6.47;;;2.25;;
45728;SDS011;31439;53.512;10.206;2023-08-08T01:55:00;7.45;;;2.60;;
45728;SDS011;31439;53.512;10.206;2023-08-08T01:57:25;5.85;;;2.20;;
45728;SDS011;31439;53.512;10.206;2023-08-08T01:59:51;6.20;;;2.10;;
45728;SDS011;31439;53.512;10.206;2023-08-08T02:02:17;6.68;;;2.10;;
45728;SDS011;31439;53.512;10.206;2023-08-08T02:04:43;5.05;;;2.10;;
45728;SDS011;31439;53.512;10.206;2023-08-08T02:07:09;7.45;;;2.30;;
45728;SDS011;31439;53.512;10.206;2023-08-08T02:09:34;6.47;;;2.00;;
45728;SDS011;31439;53.512;10.206;2023-08-08T02:12:00;6.25;;;1.92;;
45728;SDS011;31439;53.512;10.206;2023-08-08T02:14:25;5.53;;;1.83;;
45728;SDS011;31439;53.512;10.206;2023-08-08T02:16:51;6.03;;;2.03;;
45728;SDS011;31439;53.512;10.206;2023-08-08T02:19:17;4.00;;;1.80;;
45728;SDS011;31439;53.512;10.206;2023-08-08T02:21:42;4.65;;;2.00;;
45728;SDS011;31439;53.512;10.206;2023-08-08T02:24:08;5.70;;;2.10;;
45728;SDS011;31439;53.512;10.206;2023-08-08T02:26:33;6.22;;;2.00;;
45728;SDS011;31439;53.512;10.206;2023-08-08T02:28:59;6.80;;;2.10;;
45728;SDS011;31439;53.512;10.206;2023-08-08T02:31:24;5.57;;;2.20;;
45728;SDS011;31439;53.512;10.206;2023-08-08T02:33:50;6.25;;;2.00;;
45728;SDS011;31439;53.512;10.206;2023-08-08T02:36:16;6.53;;;1.60;;
45728;SDS011;31439;53.512;10.206;2023-08-08T02:38:43;4.70;;;1.50;;
45728;SDS011;31439;53.512;10.206;2023-08-08T02:41:09;4.90;;;1.52;;
45728;SDS011;31439;53.512;10.206;2023-08-08T02:43:34;4.28;;;1.90;;
45728;SDS011;31439;53.512;10.206;2023-08-08T02:46:00;6.53;;;1.60;;
45728;SDS011;31439;53.512;10.206;2023-08-08T02:48:26;3.63;;;1.75;;
45728;SDS011;31439;53.512;10.206;2023-08-08T02:50:52;5.63;;;1.60;;
45728;SDS011;31439;53.512;10.206;2023-08-08T02:53:17;4.07;;;1.60;;
45728;SDS011;31439;53.512;10.206;2023-08-08T02:55:43;4.28;;;1.55;;
45728;SDS011;31439;53.512;10.206;2023-08-08T02:58:09;4.70;;;1.80;;
45728;SDS011;31439;53.512;10.206;2023-08-08T03:00:34;7.80;;;1.83;;
45728;SDS011;31439;53.512;10.206;2023-08-08T03:03:00;5.65;;;1.90;;
45728;SDS011;31439;53.512;10.206;2023-08-08T03:05:25;12.98;;;2.00;;
45728;SDS011;31439;53.512;10.206;2023-08-08T03:07:51;4.18;;;1.77;;
45728;SDS011;31439;53.512;10.206;2023-08-08T03:10:16;3.33;;;1.50;;
45728;SDS011;31439;53.512;10.206;2023-08-08T03:12:42;4.72;;;1.45;;
45728;SDS011;31439;53.512;10.206;2023-08-08T03:15:08;7.03;;;1.70;;
45728;SDS011;31439;53.512;10.206;2023-08-08T03:17:33;5.72;;;1.40;;
45728;SDS011;31439;53.512;10.206;2023-08-08T03:20:00;4.38;;;1.95;;
45728;SDS011;31439;53.512;10.206;2023-08-08T03:22:26;5.03;;;1.60;;
45728;SDS011;31439;53.512;10.206;2023-08-08T03:24:51;4.35;;;1.60;;
45728;SDS011;31439;53.512;10.206;2023-08-08T03:27:17;4.82;;;1.60;;
45728;SDS011;31439;53.512;10.206;2023-08-08T03:29:42;5.47;;;1.50;;
45728;SDS011;31439;53.512;10.206;2023-08-08T03:32:08;4.25;;;1.50;;
45728;SDS011;31439;53.512;10.206;2023-08-08T03:34:33;5.10;;;1.90;;
45728;SDS011;31439;53.512;10.206;2023-08-08T03:36:59;4.25;;;1.45;;
45728;SDS011;31439;53.512;10.206;2023-08-08T03:39:25;5.60;;;1.80;;
45728;SDS011;31439;53.512;10.206;2023-08-08T03:41:51;5.28;;;2.03;;
45728;SDS011;31439;53.512;10.206;2023-08-08T03:44:17;5.25;;;1.70;;
45728;SDS011;31439;53.512;10.206;2023-08-08T03:46:42;6.63;;;1.60;;
45728;SDS011;31439;53.512;10.206;2023-08-08T03:49:08;5.10;;;1.63;;
45728;SDS011;31439;53.512;10.206;2023-08-08T03:51:33;4.90;;;1.70;;
45728;SDS011;31439;53.512;10.206;2023-08-08T03:53:59;5.22;;;1.70;;
45728;SDS011;31439;53.512;10.206;2023-08-08T03:56:25;4.68;;;1.80;;
45728;SDS011;31439;53.512;10.206;2023-08-08T03:58:52;9.18;;;1.92;;
45728;SDS011;31439;53.512;10.206;2023-08-08T04:01:18;4.38;;;1.80;;
45728;SDS011;31439;53.512;10.206;2023-08-08T04:03:43;5.38;;;1.95;;
45728;SDS011;31439;53.512;10.206;2023-08-08T04:06:09;5.95;;;1.60;;
45728;SDS011;31439;53.512;10.206;2023-08-08T04:08:34;5.25;;;1.80;;
45728;SDS011;31439;53.512;10.206;2023-08-08T04:11:00;4.10;;;1.70;;
45728;SDS011;31439;53.512;10.206;2023-08-08T04:13:26;7.25;;;1.80;;
45728;SDS011;31439;53.512;10.206;2023-08-08T04:15:51;4.57;;;1.88;;
45728;SDS011;31439;53.512;10.206;2023-08-08T04:18:17;5.88;;;1.70;;
45728;SDS011;31439;53.512;10.206;2023-08-08T04:20:45;3.55;;;1.45;;
45728;SDS011;31439;53.512;10.206;2023-08-08T04:23:11;5.07;;;1.80;;
45728;SDS011;31439;53.512;10.206;2023-08-08T04:25:37;6.03;;;1.67;;
45728;SDS011;31439;53.512;10.206;2023-08-08T04:28:03;4.75;;;1.90;;
45728;SDS011;31439;53.512;10.206;2023-08-08T04:30:29;5.13;;;1.55;;
45728;SDS011;31439;53.512;10.206;2023-08-08T04:32:54;3.38;;;1.40;;
45728;SDS011;31439;53.512;10.206;2023-08-08T04:35:20;3.88;;;1.40;;
45728;SDS011;31439;53.512;10.206;2023-08-08T04:37:45;2.10;;;1.20;;
45728;SDS011;31439;53.512;10.206;2023-08-08T04:40:11;5.30;;;1.58;;
45728;SDS011;31439;53.512;10.206;2023-08-08T04:42:37;4.85;;;1.55;;
45728;SDS011;31439;53.512;10.206;2023-08-08T04:45:02;5.10;;;1.60;;
45728;SDS011;31439;53.512;10.206;2023-08-08T04:47:29;4.20;;;1.45;;
45728;SDS011;31439;53.512;10.206;2023-08-08T04:49:54;4.65;;;1.48;;
45728;SDS011;31439;53.512;10.206;2023-08-08T04:52:20;4.80;;;1.65;;
45728;SDS011;31439;53.512;10.206;2023-08-08T04:54:45;5.97;;;1.70;;
45728;SDS011;31439;53.512;10.206;2023-08-08T04:57:11;5.38;;;1.80;;
45728;SDS011;31439;53.512;10.206;2023-08-08T04:59:37;5.35;;;1.50;;
45728;SDS011;31439;53.512;10.206;2023-08-08T05:02:02;5.28;;;1.58;;
45728;SDS011;31439;53.512;10.206;2023-08-08T05:04:28;3.03;;;1.60;;
45728;SDS011;31439;53.512;10.206;2023-08-08T05:06:55;3.35;;;1.48;;
45728;SDS011;31439;53.512;10.206;2023-08-08T05:09:20;4.65;;;1.40;;
45728;SDS011;31439;53.512;10.206;2023-08-08T05:11:48;10.15;;;2.35;;
45728;SDS011;31439;53.512;10.206;2023-08-08T05:14:13;5.15;;;1.88;;
45728;SDS011;31439;53.512;10.206;2023-08-08T05:16:39;5.25;;;1.80;;
45728;SDS011;31439;53.512;10.206;2023-08-08T05:19:05;5.38;;;1.40;;
45728;SDS011;31439;53.512;10.206;2023-08-08T05:21:31;3.85;;;1.50;;
45728;SDS011;31439;53.512;10.206;2023-08-08T05:23:56;5.05;;;1.50;;
45728;SDS011;31439;53.512;10.206;2023-08-08T05:26:22;5.47;;;1.92;;
45728;SDS011;31439;53.512;10.206;2023-08-08T05:28:48;6.88;;;1.80;;
45728;SDS011;31439;53.512;10.206;2023-08-08T05:31:14;4.38;;;1.67;;
45728;SDS011;31439;53.512;10.206;2023-08-08T05:33:39;4.05;;;1.60;;
45728;SDS011;31439;53.512;10.206;2023-08-08T05:36:05;6.60;;;1.90;;
45728;SDS011;31439;53.512;10.206;2023-08-08T05:38:30;4.53;;;1.77;;
45728;SDS011;31439;53.512;10.206;2023-08-08T05:40:56;6.03;;;1.75;;
45728;SDS011;31439;53.512;10.206;2023-08-08T05:43:21;5.68;;;1.52;;
45728;SDS011;31439;53.512;10.206;2023-08-08T05:45:47;6.25;;;1.60;;
45728;SDS011;31439;53.512;10.206;2023-08-08T05:48:12;7.60;;;1.48;;
45728;SDS011;31439;53.512;10.206;2023-08-08T05:50:39;3.47;;;1.63;;
45728;SDS011;31439;53.512;10.206;2023-08-08T05:53:05;3.30;;;1.33;;
45728;SDS011;31439;53.512;10.206;2023-08-08T05:55:31;3.55;;;1.52;;
45728;SDS011;31439;53.512;10.206;2023-08-08T05:57:56;5.25;;;1.50;;
45728;SDS011;31439;53.512;10.206;2023-08-08T06:00:22;3.42;;;1.60;;
45728;SDS011;31439;53.512;10.206;2023-08-08T06:02:48;3.88;;;1.58;;
45728;SDS011;31439;53.512;10.206;2023-08-08T06:05:16;3.58;;;1.30;;
45728;SDS011;31439;53.512;10.206;2023-08-08T06:07:42;8.05;;;1.50;;
45728;SDS011;31439;53.512;10.206;2023-08-08T06:10:08;3.33;;;1.45;;
45728;SDS011;31439;53.512;10.206;2023-08-08T06:12:34;3.40;;;1.58;;
45728;SDS011;31439;53.512;10.206;2023-08-08T06:15:00;4.97;;;1.40;;
45728;SDS011;31439;53.512;10.206;2023-08-08T06:17:25;5.10;;;1.70;;
45728;SDS011;31439;53.512;10.206;2023-08-08T06:19:51;3.33;;;1.60;;
45728;SDS011;31439;53.512;10.206;2023-08-08T06:22:18;3.90;;;1.50;;
45728;SDS011;31439;53.512;10.206;2023-08-08T06:24:44;5.80;;;1.70;;
45728;SDS011;31439;53.512;10.206;2023-08-08T06:27:10;4.15;;;1.45;;
45728;SDS011;31439;53.512;10.206;2023-08-08T06:29:35;3.88;;;1.75;;
45728;SDS011;31439;53.512;10.206;2023-08-08T06:32:01;4.47;;;1.60;;
45728;SDS011;31439;53.512;10.206;2023-08-08T06:34:26;6.88;;;1.77;;
45728;SDS011;31439;53.512;10.206;2023-08-08T06:36:52;3.60;;;1.50;;
45728;SDS011;31439;53.512;10.206;2023-08-08T06:39:18;8.30;;;1.50;;
45728;SDS011;31439;53.512;10.206;2023-08-08T06:41:46;3.78;;;1.52;;
45728;SDS011;31439;53.512;10.206;2023-08-08T06:44:11;5.40;;;1.60;;
45728;SDS011;31439;53.512;10.206;2023-08-08T06:46:37;3.45;;;1.60;;
45728;SDS011;31439;53.512;10.206;2023-08-08T06:49:03;4.30;;;1.60;;
45728;SDS011;31439;53.512;10.206;2023-08-08T06:51:29;7.97;;;1.90;;
45728;SDS011;31439;53.512;10.206;2023-08-08T06:53:54;5.07;;;1.65;;
45728;SDS011;31439;53.512;10.206;2023-08-08T06:56:20;5.13;;;1.70;;
45728;SDS011;31439;53.512;10.206;2023-08-08T06:58:46;4.85;;;1.50;;
45728;SDS011;31439;53.512;10.206;2023-08-08T07:01:11;5.13;;;1.80;;
45728;SDS011;31439;53.512;10.206;2023-08-08T07:03:38;5.20;;;1.65;;
45728;SDS011;31439;53.512;10.206;2023-08-08T07:06:04;4.90;;;1.60;;
45728;SDS011;31439;53.512;10.206;2023-08-08T07:08:30;6.65;;;1.60;;
45728;SDS011;31439;53.512;10.206;2023-08-08T07:10:57;4.38;;;1.55;;
45728;SDS011;31439;53.512;10.206;2023-08-08T07:13:23;6.38;;;1.42;;
45728;SDS011;31439;53.512;10.206;2023-08-08T07:15:48;3.63;;;1.30;;
45728;SDS011;31439;53.512;10.206;2023-08-08T07:18:14;5.82;;;1.33;;
45728;SDS011;31439;53.512;10.206;2023-08-08T07:20:40;5.85;;;1.85;;
45728;SDS011;31439;53.512;10.206;2023-08-08T07:23:06;5.05;;;1.38;;
45728;SDS011;31439;53.512;10.206;2023-08-08T07:25:31;2.60;;;1.40;;
45728;SDS011;31439;53.512;10.206;2023-08-08T07:27:57;3.50;;;1.58;;
45728;SDS011;31439;53.512;10.206;2023-08-08T07:30:22;3.08;;;1.38;;
45728;SDS011;31439;53.512;10.206;2023-08-08T07:32:50;3.45;;;1.30;;
45728;SDS011;31439;53.512;10.206;2023-08-08T07:35:15;4.60;;;1.70;;
45728;SDS011;31439;53.512;10.206;2023-08-08T07:37:41;4.03;;;1.33;;
45728;SDS011;31439;53.512;10.206;2023-08-08T07:40:18;5.18;;;1.25;;
45728;SDS011;31439;53.512;10.206;2023-08-08T07:42:47;5.72;;;1.38;;
45728;SDS011;31439;53.512;10.206;2023-08-08T07:45:13;2.95;;;1.20;;
45728;SDS011;31439;53.512;10.206;2023-08-08T07:47:39;3.92;;;1.27;;
45728;SDS011;31439;53.512;10.206;2023-08-08T07:50:05;3.97;;;1.35;;
45728;SDS011;31439;53.512;10.206;2023-08-08T07:52:35;6.68;;;1.60;;
45728;SDS011;31439;53.512;10.206;2023-08-08T07:55:04;4.15;;;1.40;;
45728;SDS011;31439;53.512;10.206;2023-08-08T07:57:31;6.05;;;1.40;;
45728;SDS011;31439;53.512;10.206;2023-08-08T07:59:59;8.18;;;1.60;;
45728;SDS011;31439;53.512;10.206;2023-08-08T08:02:32;5.93;;;1.67;;
45728;SDS011;31439;53.512;10.206;2023-08-08T08:04:57;7.78;;;1.70;;
45728;SDS011;31439;53.512;10.206;2023-08-08T08:07:23;6.55;;;1.60;;
45728;SDS011;31439;53.512;10.206;2023-08-08T08:09:49;3.65;;;1.60;;
45728;SDS011;31439;53.512;10.206;2023-08-08T08:12:14;7.80;;;1.90;;
45728;SDS011;31439;53.512;10.206;2023-08-08T08:14:40;5.35;;;1.70;;
45728;SDS011;31439;53.512;10.206;2023-08-08T08:17:06;5.18;;;1.70;;
45728;SDS011;31439;53.512;10.206;2023-08-08T08:19:31;4.85;;;1.80;;
45728;SDS011;31439;53.512;10.206;2023-08-08T08:21:57;5.88;;;1.52;;
45728;SDS011;31439;53.512;10.206;2023-08-08T08:24:22;4.50;;;1.60;;
45728;SDS011;31439;53.512;10.206;2023-08-08T08:26:48;5.50;;;1.65;;
45728;SDS011;31439;53.512;10.206;2023-08-08T08:29:14;6.03;;;1.70;;
45728;SDS011;31439;53.512;10.206;2023-08-08T08:31:39;5.13;;;1.70;;
45728;SDS011;31439;53.512;10.206;2023-08-08T08:34:05;6.68;;;1.60;;
45728;SDS011;31439;53.512;10.206;2023-08-08T08:36:30;6.72;;;1.80;;
45728;SDS011;31439;53.512;10.206;2023-08-08T08:38:56;6.72;;;1.90;;
45728;SDS011;31439;53.512;10.206;2023-08-08T08:41:23;4.28;;;1.55;;
45728;SDS011;31439;53.512;10.206;2023-08-08T08:43:53;6.90;;;1.40;;
45728;SDS011;31439;53.512;10.206;2023-08-08T08:46:20;6.57;;;1.38;;
45728;SDS011;31439;53.512;10.206;2023-08-08T08:48:48;6.63;;;1.40;;
45728;SDS011;31439;53.512;10.206;2023-08-08T08:51:14;6.32;;;1.50;;
45728;SDS011;31439;53.512;10.206;2023-08-08T08:53:41;4.80;;;1.40;;
45728;SDS011;31439;53.512;10.206;2023-08-08T08:56:08;4.82;;;1.42;;
45728;SDS011;31439;53.512;10.206;2023-08-08T08:58:33;4.43;;;1.42;;
45728;SDS011;31439;53.512;10.206;2023-08-08T09:00:59;7.63;;;1.55;;
45728;SDS011;31439;53.512;10.206;2023-08-08T09:03:25;5.55;;;1.40;;
45728;SDS011;31439;53.512;10.206;2023-08-08T09:05:51;5.07;;;1.58;;
45728;SDS011;31439;53.512;10.206;2023-08-08T09:08:19;4.63;;;1.20;;
45728;SDS011;31439;53.512;10.206;2023-08-08T09:10:45;4.38;;;1.45;;
45728;SDS011;31439;53.512;10.206;2023-08-08T09:13:11;5.60;;;1.50;;
45728;SDS011;31439;53.512;10.206;2023-08-08T09:15:36;4.40;;;1.40;;
45728;SDS011;31439;53.512;10.206;2023-08-08T09:18:02;2.20;;;0.95;;
45728;SDS011;31439;53.512;10.206;2023-08-08T09:20:28;5.18;;;1.05;;
45728;SDS011;31439;53.512;10.206;2023-08-08T09:22:54;4.20;;;1.08;;
45728;SDS011;31439;53.512;10.206;2023-08-08T09:25:20;5.85;;;1.23;;
45728;SDS011;31439;53.512;10.206;2023-08-08T09:27:46;5.72;;;1.42;;
45728;SDS011;31439;53.512;10.206;2023-08-08T09:30:12;2.92;;;0.90;;
45728;SDS011;31439;53.512;10.206;2023-08-08T09:32:38;4.20;;;1.10;;
45728;SDS011;31439;53.512;10.206;2023-08-08T09:35:04;4.63;;;1.00;;
45728;SDS011;31439;53.512;10.206;2023-08-08T09:37:32;3.47;;;1.10;;
45728;SDS011;31439;53.512;10.206;2023-08-08T09:39:58;4.68;;;1.20;;
45728;SDS011;31439;53.512;10.206;2023-08-08T09:42:28;4.45;;;0.90;;
45728;SDS011;31439;53.512;10.206;2023-08-08T09:44:56;5.88;;;1.25;;
45728;SDS011;31439;53.512;10.206;2023-08-08T09:47:22;2.90;;;0.90;;
45728;SDS011;31439;53.512;10.206;2023-08-08T09:49:48;3.55;;;1.00;;
45728;SDS011;31439;53.512;10.206;2023-08-08T09:52:14;3.47;;;1.10;;
45728;SDS011;31439;53.512;10.206;2023-08-08T09:54:40;3.42;;;1.35;;
45728;SDS011;31439;53.512;10.206;2023-08-08T09:57:06;2.67;;;1.00;;
45728;SDS011;31439;53.512;10.206;2023-08-08T09:59:32;3.13;;;1.00;;
45728;SDS011;31439;53.512;10.206;2023-08-08T10:01:59;2.50;;;0.98;;
45728;SDS011;31439;53.512;10.206;2023-08-08T10:04:26;3.63;;;1.30;;
45728;SDS011;31439;53.512;10.206;2023-08-08T10:06:52;3.13;;;1.10;;
45728;SDS011;31439;53.512;10.206;2023-08-08T10:09:18;4.13;;;1.02;;
45728;SDS011;31439;53.512;10.206;2023-08-08T10:11:44;4.28;;;0.98;;
45728;SDS011;31439;53.512;10.206;2023-08-08T10:14:11;6.32;;;1.50;;
45728;SDS011;31439;53.512;10.206;2023-08-08T10:16:38;5.00;;;1.17;;
45728;SDS011;31439;53.512;10.206;2023-08-08T10:19:04;2.63;;;0.90;;
45728;SDS011;31439;53.512;10.206;2023-08-08T10:21:36;3.33;;;1.20;;
45728;SDS011;31439;53.512;10.206;2023-08-08T10:24:09;4.00;;;1.10;;
45728;SDS011;31439;53.512;10.206;2023-08-08T10:29:23;4.25;;;1.17;;
45728;SDS011;31439;53.512;10.206;2023-08-08T10:32:08;2.55;;;1.10;;
45728;SDS011;31439;53.512;10.206;2023-08-08T10:34:40;4.53;;;1.27;;
45728;SDS011;31439;53.512;10.206;2023-08-08T10:37:10;2.15;;;1.13;;
45728;SDS011;31439;53.512;10.206;2023-08-08T10:39:37;10.73;;;2.55;;
45728;SDS011;31439;53.512;10.206;2023-08-08T10:42:22;6.75;;;2.00;;
45728;SDS011;31439;53.512;10.206;2023-08-08T10:44:56;4.43;;;1.30;;
45728;SDS011;31439;53.512;10.206;2023-08-08T10:47:30;2.90;;;1.20;;
45728;SDS011;31439;53.512;10.206;2023-08-08T10:52:24;4.15;;;1.40;;
45728;SDS011;31439;53.512;10.206;2023-08-08T10:54:52;3.97;;;1.48;;
45728;SDS011;31439;53.512;10.206;2023-08-08T10:57:24;5.93;;;1.70;;
45728;SDS011;31439;53.512;10.206;2023-08-08T10:59:51;32.15;;;5.43;;
45728;SDS011;31439;53.512;10.206;2023-08-08T11:02:18;11.82;;;1.85;;
45728;SDS011;31439;53.512;10.206;2023-08-08T11:04:45;4.43;;;1.30;;
45728;SDS011;31439;53.512;10.206;2023-08-08T11:07:11;2.55;;;1.38;;
45728;SDS011;31439;53.512;10.206;2023-08-08T11:09:39;6.75;;;1.35;;
45728;SDS011;31439;53.512;10.206;2023-08-08T11:12:12;2.25;;;1.00;;
45728;SDS011;31439;53.512;10.206;2023-08-08T11:14:39;6.15;;;1.30;;
45728;SDS011;31439;53.512;10.206;2023-08-08T11:17:04;4.38;;;1.30;;
45728;SDS011;31439;53.512;10.206;2023-08-08T11:19:30;3.13;;;1.25;;
45728;SDS011;31439;53.512;10.206;2023-08-08T11:21:56;4.47;;;1.00;;
45728;SDS011;31439;53.512;10.206;2023-08-08T11:24:22;5.00;;;2.42;;
45728;SDS011;31439;53.512;10.206;2023-08-08T11:26:48;4.40;;;1.30;;
45728;SDS011;31439;53.512;10.206;2023-08-08T11:29:14;4.78;;;1.05;;
45728;SDS011;31439;53.512;10.206;2023-08-08T11:31:40;3.63;;;1.13;;
45728;SDS011;31439;53.512;10.206;2023-08-08T11:34:06;4.75;;;1.42;;
45728;SDS011;31439;53.512;10.206;2023-08-08T11:36:35;3.90;;;1.30;;
45728;SDS011;31439;53.512;10.206;2023-08-08T11:39:01;5.65;;;1.50;;
45728;SDS011;31439;53.512;10.206;2023-08-08T11:41:33;4.53;;;1.50;;
45728;SDS011;31439;53.512;10.206;2023-08-08T11:44:01;2.00;;;1.00;;
45728;SDS011;31439;53.512;10.206;2023-08-08T11:46:28;2.75;;;1.10;;
45728;SDS011;31439;53.512;10.206;2023-08-08T11:49:01;4.28;;;1.20;;
45728;SDS011;31439;53.512;10.206;2023-08-08T11:51:32;2.58;;;1.10;;
45728;SDS011;31439;53.512;10.206;2023-08-08T11:53:59;3.70;;;1.00;;
45728;SDS011;31439;53.512;10.206;2023-08-08T11:56:26;3.33;;;1.30;;
45728;SDS011;31439;53.512;10.206;2023-08-08T11:58:51;3.80;;;1.17;;
45728;SDS011;31439;53.512;10.206;2023-08-08T12:01:22;3.75;;;1.20;;
45728;SDS011;31439;53.512;10.206;2023-08-08T12:03:49;3.38;;;1.02;;
45728;SDS011;31439;53.512;10.206;2023-08-08T12:06:15;2.38;;;1.20;;
45728;SDS011;31439;53.512;10.206;2023-08-08T12:08:45;3.67;;;1.15;;
45728;SDS011;31439;53.512;10.206;2023-08-08T12:11:12;1.70;;;1.00;;
45728;SDS011;31439;53.512;10.206;2023-08-08T12:13:40;4.00;;;1.10;;
45728;SDS011;31439;53.512;10.206;2023-08-08T12:16:08;3.15;;;1.20;;
45728;SDS011;31439;53.512;10.206;2023-08-08T12:18:34;3.17;;;1.15;;
45728;SDS011;31439;53.512;10.206;2023-08-08T12:21:02;3.75;;;1.52;;
45728;SDS011;31439;53.512;10.206;2023-08-08T12:23:32;4.45;;;1.27;;
45728;SDS011;31439;53.512;10.206;2023-08-08T12:25:58;3.42;;;1.15;;
45728;SDS011;31439;53.512;10.206;2023-08-08T12:28:24;2.90;;;1.02;;
45728;SDS011;31439;53.512;10.206;2023-08-08T12:30:50;4.03;;;1.10;;
45728;SDS011;31439;53.512;10.206;2023-08-08T12:33:16;5.20;;;1.10;;
45728;SDS011;31439;53.512;10.206;2023-08-08T12:35:41;4.43;;;1.10;;
45728;SDS011;31439;53.512;10.206;2023-08-08T12:38:07;4.38;;;1.27;;
45728;SDS011;31439;53.512;10.206;2023-08-08T12:40:33;4.40;;;1.20;;
45728;SDS011;31439;53.512;10.206;2023-08-08T12:42:59;3.15;;;1.13;;
45728;SDS011;31439;53.512;10.206;2023-08-08T12:45:24;3.95;;;1.17;;
45728;SDS011;31439;53.512;10.206;2023-08-08T12:47:50;3.53;;;0.90;;
45728;SDS011;31439;53.512;10.206;2023-08-08T12:50:16;2.95;;;1.10;;
45728;SDS011;31439;53.512;10.206;2023-08-08T12:52:42;3.55;;;1.02;;
45728;SDS011;31439;53.512;10.206;2023-08-08T12:55:08;2.95;;;1.13;;
45728;SDS011;31439;53.512;10.206;2023-08-08T12:57:34;4.55;;;1.50;;
45728;SDS011;31439;53.512;10.206;2023-08-08T13:00:00;6.38;;;1.23;;
45728;SDS011;31439;53.512;10.206;2023-08-08T13:02:25;4.40;;;1.20;;
45728;SDS011;31439;53.512;10.206;2023-08-08T13:04:51;5.90;;;1.20;;
45728;SDS011;31439;53.512;10.206;2023-08-08T13:07:17;4.85;;;1.60;;
45728;SDS011;31439;53.512;10.206;2023-08-08T13:09:42;5.82;;;1.40;;
45728;SDS011;31439;53.512;10.206;2023-08-08T13:12:08;3.10;;;1.23;;
45728;SDS011;31439;53.512;10.206;2023-08-08T13:14:33;5.97;;;1.63;;
45728;SDS011;31439;53.512;10.206;2023-08-08T13:16:59;5.13;;;1.63;;
45728;SDS011;31439;53.512;10.206;2023-08-08T13:19:25;4.93;;;1.40;;
45728;SDS011;31439;53.512;10.206;2023-08-08T13:21:51;6.85;;;1.40;;
45728;SDS011;31439;53.512;10.206;2023-08-08T13:24:17;6.47;;;1.52;;
45728;SDS011;31439;53.512;10.206;2023-08-08T13:26:43;4.30;;;1.25;;
45728;SDS011;31439;53.512;10.206;2023-08-08T13:29:09;6.18;;;1.50;;
45728;SDS011;31439;53.512;10.206;2023-08-08T13:31:34;6.75;;;1.90;;
45728;SDS011;31439;53.512;10.206;2023-08-08T13:34:00;4.45;;;1.33;;
45728;SDS011;31439;53.512;10.206;2023-08-08T13:36:25;7.72;;;1.83;;
45728;SDS011;31439;53.512;10.206;2023-08-08T13:38:51;7.25;;;1.60;;
45728;SDS011;31439;53.512;10.206;2023-08-08T13:41:17;6.32;;;1.60;;
45728;SDS011;31439;53.512;10.206;2023-08-08T13:43:42;7.43;;;1.92;;
45728;SDS011;31439;53.512;10.206;2023-08-08T13:46:08;5.38;;;1.92;;
45728;SDS011;31439;53.512;10.206;2023-08-08T13:48:35;9.88;;;1.67;;
45728;SDS011;31439;53.512;10.206;2023-08-08T13:51:01;6.65;;;1.55;;
45728;SDS011;31439;53.512;10.206;2023-08-08T13:53:27;8.30;;;1.90;;
45728;SDS011;31439;53.512;10.206;2023-08-08T13:55:53;11.77;;;2.17;;
45728;SDS011;31439;53.512;10.206;2023-08-08T13:58:19;9.52;;;1.88;;
45728;SDS011;31439;53.512;10.206;2023-08-08T14:00:47;6.45;;;1.70;;
45728;SDS011;31439;53.512;10.206;2023-08-08T14:03:13;6.82;;;1.80;;
45728;SDS011;31439;53.512;10.206;2023-08-08T14:05:39;8.07;;;2.00;;
45728;SDS011;31439;53.512;10.206;2023-08-08T14:08:04;6.20;;;1.67;;
45728;SDS011;31439;53.512;10.206;2023-08-08T14:10:30;9.10;;;1.60;;
45728;SDS011;31439;53.512;10.206;2023-08-08T14:12:56;6.20;;;1.30;;
45728;SDS011;31439;53.512;10.206;2023-08-08T14:15:22;5.93;;;1.77;;
45728;SDS011;31439;53.512;10.206;2023-08-08T14:17:47;7.40;;;2.08;;
45728;SDS011;31439;53.512;10.206;2023-08-08T14:20:13;4.30;;;1.10;;
45728;SDS011;31439;53.512;10.206;2023-08-08T14:22:39;6.57;;;1.38;;
45728;SDS011;31439;53.512;10.206;2023-08-08T14:25:05;5.95;;;1.42;;
45728;SDS011;31439;53.512;10.206;2023-08-08T14:27:31;5.80;;;1.73;;
45728;SDS011;31439;53.512;10.206;2023-08-08T14:29:57;8.50;;;1.80;;
45728;SDS011;31439;53.512;10.206;2023-08-08T14:32:23;5.00;;;1.20;;
45728;SDS011;31439;53.512;10.206;2023-08-08T14:34:48;5.22;;;1.40;;